sensor_id;sensor_type;location;lat;lon;timestamp;pressure;altitude;pressure_sealevel;temperature;humidity
32109;BME280;18624;50.042;8.436;2023-10-08T00:00:25;101176.56;;;15.18;100.00
32109;BME280;18624;50.042;8.436;2023-10-08T00:03:11;101096.78;;;14.57;100.00
32109;BME280;18624;50.042;8.436;2023-10-08T00:05:42;101196.13;;;15.24;100.00
32109;BME280;18624;50.042;8.436;2023-10-08T00:08:09;101127.94;;;14.83;100.00
32109;BME280;18624;50.042;8.436;2023-10-08T00:10:39;101172.25;;;15.05;100.00
32109;BME280;18624;50.042;8.436;2023-10-08T00:13:10;101143.09;;;14.91;100.00
32109;BME280;18624;50.042;8.436;2023-10-08T00:15:36;101188.28;;;15.23;100.00
32109;BME280;18624;50.042;8.436;2023-10-08T00:18:03;101165.06;;;15.07;100.00
32109;BME280;18624;50.042;8.436;2023-10-08T00:20:34;101155.13;;;14.97;100.00
32109;BME280;18624;50.042;8.436;2023-10-08T00:23:22;101139.31;;;14.85;100.00
32109;BME280;18624;50.042;8.436;2023-10-08T00:25:53;101190.16;;;15.26;100.00
32109;BME280;18624;50.042;8.436;2023-10-08T00:28:21;101178.56;;;15.18;100.00
32109;BME280;18624;50.042;8.436;2023-10-08T00:30:48;101179.25;;;15.22;100.00
32109;BME280;18624;50.042;8.436;2023-10-08T00:33:14;101157.00;;;15.13;100.00
32109;BME280;18624;50.042;8.436;2023-10-08T00:35:41;101099.69;;;14.79;100.00
32109;BME280;18624;50.042;8.436;2023-10-08T00:38:08;101188.41;;;15.32;100.00
32109;BME280;18624;50.042;8.436;2023-10-08T00:40:47;101157.13;;;15.09;100.00
32109;BME280;18624;50.042;8.436;2023-10-08T00:43:33;101099.25;;;14.80;100.00
32109;BME280;18624;50.042;8.436;2023-10-08T00:46:06;101169.50;;;15.30;100.00
32109;BME280;18624;50.042;8.436;2023-10-08T00:48:49;101173.59;;;15.38;100.00
32109;BME280;18624;50.042;8.436;2023-10-08T00:51:16;101163.00;;;15.37;100.00
32109;BME280;18624;50.042;8.436;2023-10-08T00:53:59;101141.78;;;15.21;100.00
32109;BME280;18624;50.042;8.436;2023-10-08T00:56:34;101115.06;;;15.05;100.00
32109;BME280;18624;50.042;8.436;2023-10-08T00:59:13;101163.00;;;15.37;100.00
32109;BME280;18624;50.042;8.436;2023-10-08T01:01:45;101160.56;;;15.39;100.00
32109;BME280;18624;50.042;8.436;2023-10-08T01:04:22;101142.22;;;15.32;100.00
32109;BME280;18624;50.042;8.436;2023-10-08T01:06:52;101153.47;;;15.38;100.00
32109;BME280;18624;50.042;8.436;2023-10-08T01:09:26;101133.59;;;15.30;100.00
32109;BME280;18624;50.042;8.436;2023-10-08T01:12:15;101147.84;;;15.41;100.00
32109;BME280;18624;50.042;8.436;2023-10-08T01:14:54;101147.41;;;15.43;100.00
32109;BME280;18624;50.042;8.436;2023-10-08T01:17:22;101157.69;;;15.42;100.00
32109;BME280;18624;50.042;8.436;2023-10-08T01:19:53;101165.97;;;15.42;100.00
32109;BME280;18624;50.042;8.436;2023-10-08T01:22:46;101160.44;;;15.42;100.00
32109;BME280;18624;50.042;8.436;2023-10-08T01:25:13;101131.94;;;15.33;100.00
32109;BME280;18624;50.042;8.436;2023-10-08T01:27:47;101134.16;;;15.38;100.00
32109;BME280;18624;50.042;8.436;2023-10-08T01:30:14;101126.84;;;15.44;100.00
32109;BME280;18624;50.042;8.436;2023-10-08T01:32:46;101123.22;;;15.34;100.00
32109;BME280;18624;50.042;8.436;2023-10-08T01:35:14;101142.22;;;15.45;100.00
32109;BME280;18624;50.042;8.436;2023-10-08T01:37:50;101119.47;;;15.28;100.00
32109;BME280;18624;50.042;8.436;2023-10-08T01:40:17;101149.75;;;15.44;100.00
32109;BME280;18624;50.042;8.436;2023-10-08T01:42:44;101087.09;;;15.03;100.00
32109;BME280;18624;50.042;8.436;2023-10-08T01:45:12;101161.56;;;15.45;100.00
32109;BME280;18624;50.042;8.436;2023-10-08T01:47:46;101144.88;;;15.36;100.00
32109;BME280;18624;50.042;8.436;2023-10-08T01:50:18;101146.06;;;15.35;100.00
32109;BME280;18624;50.042;8.436;2023-10-08T01:52:48;101077.38;;;14.86;100.00
32109;BME280;18624;50.042;8.436;2023-10-08T01:55:15;101173.03;;;15.43;100.00
32109;BME280;18624;50.042;8.436;2023-10-08T01:57:45;101163.66;;;15.41;100.00
32109;BME280;18624;50.042;8.436;2023-10-08T02:00:13;101177.56;;;15.37;100.00
32109;BME280;18624;50.042;8.436;2023-10-08T02:02:47;101166.88;;;15.27;100.00
32109;BME280;18624;50.042;8.436;2023-10-08T02:05:14;101186.41;;;15.32;100.00
32109;BME280;18624;50.042;8.436;2023-10-08T02:07:42;101132.72;;;14.95;100.00
32109;BME280;18624;50.042;8.436;2023-10-08T02:10:11;101160.66;;;15.10;100.00
32109;BME280;18624;50.042;8.436;2023-10-08T02:12:40;101174.38;;;15.13;100.00
32109;BME280;18624;50.042;8.436;2023-10-08T02:15:08;101177.00;;;15.17;100.00
32109;BME280;18624;50.042;8.436;2023-10-08T02:17:37;101164.28;;;15.07;100.00
32109;BME280;18624;50.042;8.436;2023-10-08T02:20:05;101160.88;;;15.03;100.00
32109;BME280;18624;50.042;8.436;2023-10-08T02:22:32;101100.31;;;14.57;100.00
32109;BME280;18624;50.042;8.436;2023-10-08T02:25:00;101119.31;;;14.68;100.00
32109;BME280;18624;50.042;8.436;2023-10-08T02:27:28;101077.66;;;14.50;100.00
32109;BME280;18624;50.042;8.436;2023-10-08T02:29:54;101161.22;;;15.05;100.00
32109;BME280;18624;50.042;8.436;2023-10-08T02:32:21;101159.78;;;15.00;100.00
32109;BME280;18624;50.042;8.436;2023-10-08T02:34:51;101140.84;;;14.86;100.00
32109;BME280;18624;50.042;8.436;2023-10-08T02:37:17;101164.63;;;14.96;100.00
32109;BME280;18624;50.042;8.436;2023-10-08T02:39:45;101156.00;;;14.94;100.00
32109;BME280;18624;50.042;8.436;2023-10-08T02:42:13;101152.03;;;14.95;100.00
32109;BME280;18624;50.042;8.436;2023-10-08T02:44:40;101145.72;;;14.94;100.00
32109;BME280;18624;50.042;8.436;2023-10-08T02:47:09;101145.84;;;14.91;100.00
32109;BME280;18624;50.042;8.436;2023-10-08T02:49:39;101074.44;;;14.38;100.00
32109;BME280;18624;50.042;8.436;2023-10-08T02:52:08;101091.03;;;14.51;100.00
32109;BME280;18624;50.042;8.436;2023-10-08T02:54:35;101134.56;;;14.73;100.00
32109;BME280;18624;50.042;8.436;2023-10-08T02:57:05;101144.38;;;14.74;100.00
32109;BME280;18624;50.042;8.436;2023-10-08T02:59:37;101149.47;;;14.75;100.00
32109;BME280;18624;50.042;8.436;2023-10-08T03:02:10;101124.47;;;14.53;100.00
32109;BME280;18624;50.042;8.436;2023-10-08T03:04:49;101159.81;;;14.71;100.00
32109;BME280;18624;50.042;8.436;2023-10-08T03:07:18;101178.28;;;14.74;100.00
32109;BME280;18624;50.042;8.436;2023-10-08T03:09:51;101172.41;;;14.72;100.00
32109;BME280;18624;50.042;8.436;2023-10-08T03:12:29;101170.09;;;14.71;100.00
32109;BME280;18624;50.042;8.436;2023-10-08T03:14:59;101146.53;;;14.53;100.00
32109;BME280;18624;50.042;8.436;2023-10-08T03:17:45;101119.00;;;14.37;100.00
32109;BME280;18624;50.042;8.436;2023-10-08T03:20:18;101178.03;;;14.68;100.00
32109;BME280;18624;50.042;8.436;2023-10-08T03:23:05;101191.84;;;14.68;100.00
32109;BME280;18624;50.042;8.436;2023-10-08T03:25:54;101186.75;;;14.67;100.00
32109;BME280;18624;50.042;8.436;2023-10-08T03:28:43;101191.25;;;14.61;100.00
32109;BME280;18624;50.042;8.436;2023-10-08T03:31:10;101189.34;;;14.58;100.00
32109;BME280;18624;50.042;8.436;2023-10-08T03:33:43;101189.34;;;14.58;100.00
32109;BME280;18624;50.042;8.436;2023-10-08T03:36:15;101193.34;;;14.57;100.00
32109;BME280;18624;50.042;8.436;2023-10-08T03:38:48;101187.91;;;14.53;100.00
32109;BME280;18624;50.042;8.436;2023-10-08T03:41:24;101196.94;;;14.54;100.00
32109;BME280;18624;50.042;8.436;2023-10-08T03:43:55;101205.59;;;14.56;100.00
32109;BME280;18624;50.042;8.436;2023-10-08T03:46:32;101205.75;;;14.49;100.00
32109;BME280;18624;50.042;8.436;2023-10-08T03:49:05;101196.63;;;14.35;100.00
32109;BME280;18624;50.042;8.436;2023-10-08T03:51:52;101224.81;;;14.43;100.00
32109;BME280;18624;50.042;8.436;2023-10-08T03:54:19;101154.06;;;13.91;100.00
32109;BME280;18624;50.042;8.436;2023-10-08T03:56:56;101226.09;;;14.38;100.00
32109;BME280;18624;50.042;8.436;2023-10-08T03:59:23;101203.66;;;14.24;100.00
32109;BME280;18624;50.042;8.436;2023-10-08T04:02:02;101229.31;;;14.37;100.00
32109;BME280;18624;50.042;8.436;2023-10-08T04:04:42;101211.72;;;14.31;100.00
32109;BME280;18624;50.042;8.436;2023-10-08T04:07:25;101182.97;;;14.15;100.00
32109;BME280;18624;50.042;8.436;2023-10-08T04:10:11;101215.53;;;14.37;100.00
32109;BME280;18624;50.042;8.436;2023-10-08T04:12:37;101213.53;;;14.37;100.00
32109;BME280;18624;50.042;8.436;2023-10-08T04:15:10;101183.31;;;14.17;100.00
32109;BME280;18624;50.042;8.436;2023-10-08T04:17:38;101199.91;;;14.30;100.00
32109;BME280;18624;50.042;8.436;2023-10-08T04:20:13;101173.78;;;14.06;100.00
32109;BME280;18624;50.042;8.436;2023-10-08T04:22:59;101200.38;;;14.29;100.00
32109;BME280;18624;50.042;8.436;2023-10-08T04:25:26;101101.41;;;13.56;100.00
32109;BME280;18624;50.042;8.436;2023-10-08T04:27:57;101209.22;;;14.36;100.00
32109;BME280;18624;50.042;8.436;2023-10-08T04:30:36;101168.97;;;14.10;100.00
32109;BME280;18624;50.042;8.436;2023-10-08T04:33:03;101193.53;;;14.33;100.00
32109;BME280;18624;50.042;8.436;2023-10-08T04:35:34;101202.22;;;14.32;100.00
32109;BME280;18624;50.042;8.436;2023-10-08T04:38:04;101200.50;;;14.38;100.00
32109;BME280;18624;50.042;8.436;2023-10-08T04:40:35;101194.91;;;14.41;100.00
32109;BME280;18624;50.042;8.436;2023-10-08T04:43:09;101215.31;;;14.44;100.00
32109;BME280;18624;50.042;8.436;2023-10-08T04:45:37;101124.47;;;13.79;100.00
32109;BME280;18624;50.042;8.436;2023-10-08T04:48:05;101208.25;;;14.43;100.00
32109;BME280;18624;50.042;8.436;2023-10-08T04:50:40;101217.31;;;14.43;100.00
32109;BME280;18624;50.042;8.436;2023-10-08T04:53:11;101219.97;;;14.47;100.00
32109;BME280;18624;50.042;8.436;2023-10-08T04:55:37;101226.69;;;14.46;100.00
32109;BME280;18624;50.042;8.436;2023-10-08T04:58:14;101205.44;;;14.30;100.00
32109;BME280;18624;50.042;8.436;2023-10-08T05:00:47;101227.13;;;14.44;100.00
32109;BME280;18624;50.042;8.436;2023-10-08T05:03:20;101224.03;;;14.42;100.00
32109;BME280;18624;50.042;8.436;2023-10-08T05:05:49;101201.47;;;14.31;100.00
32109;BME280;18624;50.042;8.436;2023-10-08T05:08:34;101225.56;;;14.43;100.00
32109;BME280;18624;50.042;8.436;2023-10-08T05:11:20;101212.69;;;14.24;100.00
32109;BME280;18624;50.042;8.436;2023-10-08T05:14:05;101229.31;;;14.37;100.00
32109;BME280;18624;50.042;8.436;2023-10-08T05:16:33;101108.63;;;13.50;100.00
32109;BME280;18624;50.042;8.436;2023-10-08T05:19:10;101231.94;;;14.40;100.00
32109;BME280;18624;50.042;8.436;2023-10-08T05:21:55;101204.34;;;14.28;100.00
32109;BME280;18624;50.042;8.436;2023-10-08T05:24:45;101215.75;;;14.42;100.00
32109;BME280;18624;50.042;8.436;2023-10-08T05:27:33;101199.47;;;14.32;100.00
32109;BME280;18624;50.042;8.436;2023-10-08T05:30:17;101215.06;;;14.38;100.00
32109;BME280;18624;50.042;8.436;2023-10-08T05:33:04;101204.91;;;14.35;100.00
32109;BME280;18624;50.042;8.436;2023-10-08T05:35:45;101209.03;;;14.43;100.00
32109;BME280;18624;50.042;8.436;2023-10-08T05:38:14;101228.25;;;14.47;100.00
32109;BME280;18624;50.042;8.436;2023-10-08T05:40:58;101102.78;;;13.64;100.00
32109;BME280;18624;50.042;8.436;2023-10-08T05:48:54;101201.88;;;14.46;100.00
32109;BME280;18624;50.042;8.436;2023-10-08T05:51:50;101185.97;;;14.37;100.00
32109;BME280;18624;50.042;8.436;2023-10-08T05:54:18;101221.09;;;14.50;100.00
32109;BME280;18624;50.042;8.436;2023-10-08T05:57:06;101222.72;;;14.47;100.00
32109;BME280;18624;50.042;8.436;2023-10-08T05:59:41;101211.69;;;14.47;100.00
32109;BME280;18624;50.042;8.436;2023-10-08T06:02:31;101137.97;;;13.89;100.00
32109;BME280;18624;50.042;8.436;2023-10-08T06:05:08;101232.56;;;14.48;100.00
32109;BME280;18624;50.042;8.436;2023-10-08T06:07:48;101207.75;;;14.32;100.00
32109;BME280;18624;50.042;8.436;2023-10-08T06:15:41;101251.63;;;14.42;100.00
32109;BME280;18624;50.042;8.436;2023-10-08T06:18:15;101268.34;;;14.35;100.00
32109;BME280;18624;50.042;8.436;2023-10-08T06:20:45;101294.44;;;14.47;100.00
32109;BME280;18624;50.042;8.436;2023-10-08T06:23:13;101284.72;;;14.42;100.00
32109;BME280;18624;50.042;8.436;2023-10-08T06:25:45;101192.47;;;13.82;100.00
32109;BME280;18624;50.042;8.436;2023-10-08T06:28:16;101269.38;;;14.41;100.00
32109;BME280;18624;50.042;8.436;2023-10-08T06:30:47;101279.97;;;14.43;100.00
32109;BME280;18624;50.042;8.436;2023-10-08T06:33:16;101279.19;;;14.42;100.00
32109;BME280;18624;50.042;8.436;2023-10-08T06:35:46;101279.63;;;14.41;100.00
32109;BME280;18624;50.042;8.436;2023-10-08T06:38:34;101272.66;;;14.36;100.00
32109;BME280;18624;50.042;8.436;2023-10-08T06:41:01;101299.56;;;14.49;100.00
32109;BME280;18624;50.042;8.436;2023-10-08T06:43:36;101286.44;;;14.36;100.00
32109;BME280;18624;50.042;8.436;2023-10-08T06:46:04;101307.09;;;14.44;100.00
32109;BME280;18624;50.042;8.436;2023-10-08T06:48:34;101315.31;;;14.48;100.00
32109;BME280;18624;50.042;8.436;2023-10-08T06:51:01;101293.16;;;14.35;100.00
32109;BME280;18624;50.042;8.436;2023-10-08T06:53:34;101255.50;;;14.12;100.00
32109;BME280;18624;50.042;8.436;2023-10-08T06:56:01;101280.50;;;14.22;100.00
32109;BME280;18624;50.042;8.436;2023-10-08T06:58:31;101257.94;;;14.10;100.00
32109;BME280;18624;50.042;8.436;2023-10-08T07:01:01;101198.75;;;13.82;100.00
32109;BME280;18624;50.042;8.436;2023-10-08T07:03:32;101272.66;;;14.36;100.00
32109;BME280;18624;50.042;8.436;2023-10-08T07:06:00;101258.88;;;14.20;100.00
32109;BME280;18624;50.042;8.436;2023-10-08T07:08:30;101320.47;;;14.62;100.00
32109;BME280;18624;50.042;8.436;2023-10-08T07:11:02;101321.94;;;14.67;100.00
32109;BME280;18624;50.042;8.436;2023-10-08T07:13:32;101331.66;;;14.72;100.00
32109;BME280;18624;50.042;8.436;2023-10-08T07:15:59;101318.75;;;14.68;100.00
32109;BME280;18624;50.042;8.436;2023-10-08T07:18:29;101275.66;;;14.42;100.00
32109;BME280;18624;50.042;8.436;2023-10-08T07:21:00;101328.97;;;14.84;100.00
32109;BME280;18624;50.042;8.436;2023-10-08T07:23:28;101334.41;;;14.88;100.00
32109;BME280;18624;50.042;8.436;2023-10-08T07:26:02;101337.09;;;14.91;100.00
32109;BME280;18624;50.042;8.436;2023-10-08T07:28:39;101347.22;;;14.94;100.00
32109;BME280;18624;50.042;8.436;2023-10-08T07:31:13;101332.88;;;14.87;100.00
32109;BME280;18624;50.042;8.436;2023-10-08T07:33:43;101342.06;;;14.97;100.00
32109;BME280;18624;50.042;8.436;2023-10-08T07:36:10;101341.53;;;15.02;100.00
32109;BME280;18624;50.042;8.436;2023-10-08T07:38:44;101337.66;;;14.99;100.00
32109;BME280;18624;50.042;8.436;2023-10-08T07:41:10;101337.66;;;14.99;100.00
32109;BME280;18624;50.042;8.436;2023-10-08T07:43:41;101344.75;;;15.00;100.00
32109;BME280;18624;50.042;8.436;2023-10-08T07:46:10;101351.03;;;15.01;100.00
32109;BME280;18624;50.042;8.436;2023-10-08T07:48:37;101352.13;;;15.03;100.00
32109;BME280;18624;50.042;8.436;2023-10-08T07:51:09;101296.34;;;14.66;100.00
32109;BME280;18624;50.042;8.436;2023-10-08T07:53:36;101288.94;;;14.63;100.00
32109;BME280;18624;50.042;8.436;2023-10-08T07:56:08;101346.28;;;15.01;100.00
32109;BME280;18624;50.042;8.436;2023-10-08T07:58:35;101335.00;;;14.96;100.00
32109;BME280;18624;50.042;8.436;2023-10-08T08:01:06;101315.72;;;14.79;100.00
32109;BME280;18624;50.042;8.436;2023-10-08T08:03:34;101331.56;;;14.91;100.00
32109;BME280;18624;50.042;8.436;2023-10-08T08:06:07;101277.72;;;14.54;100.00
32109;BME280;18624;50.042;8.436;2023-10-08T08:08:38;101292.94;;;14.75;100.00
32109;BME280;18624;50.042;8.436;2023-10-08T08:11:05;101245.94;;;14.50;100.00
32109;BME280;18624;50.042;8.436;2023-10-08T08:13:39;101318.22;;;15.03;100.00
32109;BME280;18624;50.042;8.436;2023-10-08T08:16:14;101305.06;;;14.94;100.00
32109;BME280;18624;50.042;8.436;2023-10-08T08:18:44;101334.53;;;15.13;100.00
32109;BME280;18624;50.042;8.436;2023-10-08T08:21:14;101340.59;;;15.21;100.00
32109;BME280;18624;50.042;8.436;2023-10-08T08:23:43;101339.28;;;15.26;100.00
32109;BME280;18624;50.042;8.436;2023-10-08T08:26:16;101352.56;;;15.31;100.00
32109;BME280;18624;50.042;8.436;2023-10-08T08:29:06;101325.16;;;15.24;100.00
32109;BME280;18624;50.042;8.436;2023-10-08T08:31:35;101314.97;;;15.20;100.00
32109;BME280;18624;50.042;8.436;2023-10-08T08:34:02;101319.72;;;15.20;100.00
32109;BME280;18624;50.042;8.436;2023-10-08T08:36:34;101324.28;;;15.27;100.00
32109;BME280;18624;50.042;8.436;2023-10-08T08:39:05;101343.41;;;15.34;100.00
32109;BME280;18624;50.042;8.436;2023-10-08T08:41:37;101362.88;;;15.43;100.00
32109;BME280;18624;50.042;8.436;2023-10-08T08:44:05;101347.53;;;15.42;100.00
32109;BME280;18624;50.042;8.436;2023-10-08T08:46:34;101371.28;;;15.52;100.00
32109;BME280;18624;50.042;8.436;2023-10-08T08:49:07;101365.66;;;15.56;100.00
32109;BME280;18624;50.042;8.436;2023-10-08T08:51:35;101371.88;;;15.60;100.00
32109;BME280;18624;50.042;8.436;2023-10-08T08:54:03;101363.50;;;15.63;100.00
32109;BME280;18624;50.042;8.436;2023-10-08T08:56:34;101366.59;;;15.65;100.00
32109;BME280;18624;50.042;8.436;2023-10-08T08:59:04;101341.78;;;15.62;100.00
32109;BME280;18624;50.042;8.436;2023-10-08T09:01:31;101346.38;;;15.68;100.00
32109;BME280;18624;50.042;8.436;2023-10-08T09:04:00;101372.59;;;15.89;100.00
32109;BME280;18624;50.042;8.436;2023-10-08T09:06:28;101317.47;;;15.57;100.00
32109;BME280;18624;50.042;8.436;2023-10-08T09:08:55;101379.34;;;16.01;100.00
32109;BME280;18624;50.042;8.436;2023-10-08T09:11:40;101402.47;;;16.07;100.00
32109;BME280;18624;50.042;8.436;2023-10-08T09:14:09;101406.25;;;16.13;100.00
32109;BME280;18624;50.042;8.436;2023-10-08T09:16:38;101367.88;;;15.90;100.00
32109;BME280;18624;50.042;8.436;2023-10-08T09:19:05;101408.78;;;16.20;100.00
32109;BME280;18624;50.042;8.436;2023-10-08T09:21:38;101336.53;;;15.80;100.00
32109;BME280;18624;50.042;8.436;2023-10-08T09:24:05;101395.63;;;16.25;100.00
32109;BME280;18624;50.042;8.436;2023-10-08T09:26:37;101331.81;;;15.81;100.00
32109;BME280;18624;50.042;8.436;2023-10-08T09:29:06;101396.19;;;16.32;100.00
32109;BME280;18624;50.042;8.436;2023-10-08T09:31:34;101351.72;;;16.01;100.00
32109;BME280;18624;50.042;8.436;2023-10-08T09:34:03;101404.25;;;16.39;100.00
32109;BME280;18624;50.042;8.436;2023-10-08T09:36:30;101375.78;;;16.39;100.00
32109;BME280;18624;50.042;8.436;2023-10-08T09:39:03;101388.84;;;16.51;100.00
32109;BME280;18624;50.042;8.436;2023-10-08T09:41:32;101281.25;;;15.80;100.00
32109;BME280;18624;50.042;8.436;2023-10-08T09:43:59;101384.63;;;16.59;100.00
32109;BME280;18624;50.042;8.436;2023-10-08T09:46:30;101330.09;;;16.34;100.00
32109;BME280;18624;50.042;8.436;2023-10-08T09:49:01;101385.94;;;16.67;100.00
32109;BME280;18624;50.042;8.436;2023-10-08T09:51:32;101326.56;;;16.34;100.00
32109;BME280;18624;50.042;8.436;2023-10-08T09:54:29;101381.41;;;16.74;100.00
32109;BME280;18624;50.042;8.436;2023-10-08T09:57:04;101381.84;;;16.85;100.00
32109;BME280;18624;50.042;8.436;2023-10-08T09:59:34;101310.19;;;16.39;100.00
32109;BME280;18624;50.042;8.436;2023-10-08T10:02:01;101358.84;;;16.75;100.00
32109;BME280;18624;50.042;8.436;2023-10-08T10:04:30;101328.81;;;16.61;100.00
32109;BME280;18624;50.042;8.436;2023-10-08T10:07:11;101378.59;;;16.99;100.00
32109;BME280;18624;50.042;8.436;2023-10-08T10:09:44;101387.97;;;17.02;100.00
32109;BME280;18624;50.042;8.436;2023-10-08T10:12:18;101360.00;;;16.87;100.00
32109;BME280;18624;50.042;8.436;2023-10-08T10:14:46;101358.59;;;16.82;100.00
32109;BME280;18624;50.042;8.436;2023-10-08T10:17:20;101382.00;;;17.03;100.00
32109;BME280;18624;50.042;8.436;2023-10-08T10:20:09;101375.94;;;16.95;100.00
32109;BME280;18624;50.042;8.436;2023-10-08T10:22:39;101331.94;;;16.63;100.00
32109;BME280;18624;50.042;8.436;2023-10-08T10:25:08;101402.56;;;17.15;100.00
32109;BME280;18624;50.042;8.436;2023-10-08T10:27:42;101310.88;;;16.65;100.00
32109;BME280;18624;50.042;8.436;2023-10-08T10:30:32;101355.06;;;17.04;100.00
32109;BME280;18624;50.042;8.436;2023-10-08T10:33:01;101336.44;;;16.82;100.00
32109;BME280;18624;50.042;8.436;2023-10-08T10:35:28;101401.53;;;17.21;100.00
32109;BME280;18624;50.042;8.436;2023-10-08T10:37:56;101387.53;;;17.03;100.00
32109;BME280;18624;50.042;8.436;2023-10-08T10:40:29;101390.50;;;17.09;100.00
32109;BME280;18624;50.042;8.436;2023-10-08T10:43:06;101355.25;;;16.87;100.00
32109;BME280;18624;50.042;8.436;2023-10-08T10:45:35;101315.97;;;16.67;100.00
32109;BME280;18624;50.042;8.436;2023-10-08T10:48:03;101324.06;;;16.74;100.00
32109;BME280;18624;50.042;8.436;2023-10-08T10:50:49;101407.47;;;17.33;100.00
32109;BME280;18624;50.042;8.436;2023-10-08T10:53:37;101339.09;;;16.86;100.00
32109;BME280;18624;50.042;8.436;2023-10-08T10:56:23;101396.13;;;17.18;100.00
32109;BME280;18624;50.042;8.436;2023-10-08T10:59:00;101398.38;;;17.32;100.00
32109;BME280;18624;50.042;8.436;2023-10-08T11:01:32;101296.47;;;16.70;100.00
32109;BME280;18624;50.042;8.436;2023-10-08T11:04:13;101422.69;;;17.50;100.00
32109;BME280;18624;50.042;8.436;2023-10-08T11:06:48;101392.06;;;17.32;100.00
32109;BME280;18624;50.042;8.436;2023-10-08T11:09:17;101424.75;;;17.59;100.00
32109;BME280;18624;50.042;8.436;2023-10-08T11:12:02;101410.38;;;17.51;100.00
32109;BME280;18624;50.042;8.436;2023-10-08T11:14:41;101383.34;;;17.42;100.00
32109;BME280;18624;50.042;8.436;2023-10-08T11:17:24;101350.78;;;17.25;100.00
32109;BME280;18624;50.042;8.436;2023-10-08T11:20:00;101428.31;;;17.81;100.00
32109;BME280;18624;50.042;8.436;2023-10-08T11:22:41;101423.22;;;17.80;100.00
32109;BME280;18624;50.042;8.436;2023-10-08T11:25:30;101423.22;;;17.80;100.00
32109;BME280;18624;50.042;8.436;2023-10-08T11:28:06;101418.13;;;17.78;100.00
32109;BME280;18624;50.042;8.436;2023-10-08T11:30:38;101421.69;;;17.79;100.00
32109;BME280;18624;50.042;8.436;2023-10-08T11:33:11;101414.56;;;17.78;100.00
32109;BME280;18624;50.042;8.436;2023-10-08T11:38:27;101365.13;;;17.54;100.00
32109;BME280;18624;50.042;8.436;2023-10-08T11:40:54;101320.56;;;17.17;100.00
32109;BME280;18624;50.042;8.436;2023-10-08T11:43:27;101405.53;;;17.86;100.00
32109;BME280;18624;50.042;8.436;2023-10-08T11:45:57;101403.22;;;17.85;100.00
32109;BME280;18624;50.042;8.436;2023-10-08T11:48:32;101337.94;;;17.40;100.00
32109;BME280;18624;50.042;8.436;2023-10-08T11:51:04;101336.59;;;17.44;100.00
32109;BME280;18624;50.042;8.436;2023-10-08T11:53:32;101363.50;;;17.66;100.00
32109;BME280;18624;50.042;8.436;2023-10-08T11:56:04;101351.72;;;17.53;100.00
32109;BME280;18624;50.042;8.436;2023-10-08T11:58:40;101322.22;;;17.37;100.00
32109;BME280;18624;50.042;8.436;2023-10-08T12:01:11;101332.44;;;17.49;100.00
32109;BME280;18624;50.042;8.436;2023-10-08T12:03:42;101321.81;;;17.48;100.00
32109;BME280;18624;50.042;8.436;2023-10-08T12:06:13;101353.19;;;17.66;100.00
32109;BME280;18624;50.042;8.436;2023-10-08T12:08:42;101274.53;;;17.20;100.00
32109;BME280;18624;50.042;8.436;2023-10-08T12:11:15;101356.69;;;17.80;100.00
32109;BME280;18624;50.042;8.436;2023-10-08T12:13:42;101242.25;;;16.95;100.00
32109;BME280;18624;50.042;8.436;2023-10-08T12:16:13;101315.81;;;17.49;100.00
32109;BME280;18624;50.042;8.436;2023-10-08T12:18:45;101366.41;;;17.84;100.00
32109;BME280;18624;50.042;8.436;2023-10-08T12:21:20;101394.34;;;17.99;100.00
32109;BME280;18624;50.042;8.436;2023-10-08T12:23:48;101381.13;;;18.03;100.00
32109;BME280;18624;50.042;8.436;2023-10-08T12:26:17;101373.91;;;18.06;100.00
32109;BME280;18624;50.042;8.436;2023-10-08T12:28:48;101340.94;;;17.77;100.00
32109;BME280;18624;50.042;8.436;2023-10-08T12:31:17;101370.66;;;18.07;100.00
32109;BME280;18624;50.042;8.436;2023-10-08T12:33:52;101371.44;;;18.08;100.00
32109;BME280;18624;50.042;8.436;2023-10-08T12:36:27;101248.44;;;17.30;100.00
32109;BME280;18624;50.042;8.436;2023-10-08T12:39:00;101372.38;;;18.14;100.00
32109;BME280;18624;50.042;8.436;2023-10-08T12:41:37;101368.19;;;18.09;100.00
32109;BME280;18624;50.042;8.436;2023-10-08T12:44:07;101323.00;;;17.68;100.00
32109;BME280;18624;50.042;8.436;2023-10-08T12:46:34;101224.78;;;17.07;100.00
32109;BME280;18624;50.042;8.436;2023-10-08T12:49:01;101351.47;;;17.91;100.00
32109;BME280;18624;50.042;8.436;2023-10-08T12:51:29;101342.69;;;17.83;100.00
32109;BME280;18624;50.042;8.436;2023-10-08T12:53:59;101362.81;;;18.06;100.00
32109;BME280;18624;50.042;8.436;2023-10-08T12:56:33;101347.31;;;17.95;100.00
32109;BME280;18624;50.042;8.436;2023-10-08T12:59:26;101364.81;;;18.14;100.00
32109;BME280;18624;50.042;8.436;2023-10-08T13:01:59;101365.44;;;18.18;100.00
32109;BME280;18624;50.042;8.436;2023-10-08T13:04:33;101337.22;;;18.11;100.00
32109;BME280;18624;50.042;8.436;2023-10-08T13:07:01;101342.31;;;18.12;100.00
32109;BME280;18624;50.042;8.436;2023-10-08T13:09:32;101363.66;;;18.34;100.00
32109;BME280;18624;50.042;8.436;2023-10-08T13:11:58;101360.88;;;18.34;98.99
32109;BME280;18624;50.042;8.436;2023-10-08T13:14:26;101326.59;;;18.18;99.68
32109;BME280;18624;50.042;8.436;2023-10-08T13:16:52;101301.44;;;18.04;99.41
32109;BME280;18624;50.042;8.436;2023-10-08T13:19:22;101353.19;;;18.38;100.00
32109;BME280;18624;50.042;8.436;2023-10-08T13:21:50;101333.13;;;18.34;100.00